Algona, Washington
Current Conditions -  °F | °C
As of 7:53 AM on Thursday 30 Oct 2014 (Local Time) from KSEA Reporting Station
Light Rain Light Rain  
Wind Chill: 60°   Ceiling: 8500
Heat Index: 60°   Visibility: 10mi
Dew Point: 49°   Wind: 14mph
Humidity: 67%   Direction: 120°ESE
Pressure: 29.87"   Gusts: NA
Location:  47.31°N, 122.266°W
Report Text: KSEA 301453Z 12012KT 10SM -RA FEW065 BKN085 OVC200 16/09 A2987 RMK AO2 RAB51 SLP120 P0000 60000 T01560094 56020
Loading
Personal Weather Stations






























Interactive Weather Map
Tropical Storm Tracking
New forecast layout! Learn more

10-Day Weather Forecast

Advertisements
Track Severe Weather on mobile